Terminal Aerodrome Forecast
Issued by NWS Charleston, WV

Current Version | Previous Version | Text Only | Print | Product List | Glossary Off
Versions: 1 2 3 4 5 6 7 8 9 10 11 12 13 14 15 16 17 18 19 20 21 22 23

000
FTUS41 KRLX 301700 RRA
TAFBKW
TAF
KBKW 301741Z 3018/3118 29005KT P6SM BKN040
      TEMPO 3018/3022 BKN025
     FM310000 VRB03KT P6SM BKN040
     FM310400 00000KT P6SM SCT035
     FM311400 VRB03KT P6SM SCT040=

USA.gov is the U.S. government's official web portal to all federal, state and local government web resources and services.